sensor_id;sensor_type;location;lat;lon;timestamp;pressure;altitude;pressure_sealevel;temperature;humidity
51781;BME280;37844;57.126;24.288;2022-12-10T00:02:01;101228.38;;;-7.74;100.00
51781;BME280;37844;57.126;24.288;2022-12-10T00:04:26;101234.13;;;-7.75;100.00
51781;BME280;37844;57.126;24.288;2022-12-10T00:06:52;101235.88;;;-7.74;100.00
51781;BME280;37844;57.126;24.288;2022-12-10T00:09:19;101229.59;;;-7.79;100.00
51781;BME280;37844;57.126;24.288;2022-12-10T00:11:45;101239.63;;;-7.97;100.00
51781;BME280;37844;57.126;24.288;2022-12-10T00:14:11;101243.28;;;-7.93;100.00
51781;BME280;37844;57.126;24.288;2022-12-10T00:16:38;101257.88;;;-7.89;100.00
51781;BME280;37844;57.126;24.288;2022-12-10T00:19:04;101242.28;;;-8.13;100.00
51781;BME280;37844;57.126;24.288;2022-12-10T00:21:32;101245.06;;;-8.10;100.00
51781;BME280;37844;57.126;24.288;2022-12-10T00:23:59;101239.19;;;-8.10;100.00
51781;BME280;37844;57.126;24.288;2022-12-10T00:26:30;101235.97;;;-8.09;100.00
51781;BME280;37844;57.126;24.288;2022-12-10T00:28:56;101247.72;;;-7.99;100.00
51781;BME280;37844;57.126;24.288;2022-12-10T00:31:25;101252.41;;;-8.02;100.00
51781;BME280;37844;57.126;24.288;2022-12-10T00:33:54;101250.97;;;-8.00;100.00
51781;BME280;37844;57.126;24.288;2022-12-10T00:36:26;101245.22;;;-8.08;100.00
51781;BME280;37844;57.126;24.288;2022-12-10T00:38:52;101257.00;;;-8.07;100.00
51781;BME280;37844;57.126;24.288;2022-12-10T00:41:18;101249.06;;;-8.20;100.00
51781;BME280;37844;57.126;24.288;2022-12-10T00:43:44;101249.94;;;-8.28;100.00
51781;BME280;37844;57.126;24.288;2022-12-10T00:46:11;101249.66;;;-8.23;100.00
51781;BME280;37844;57.126;24.288;2022-12-10T00:48:37;101246.25;;;-8.15;100.00
51781;BME280;37844;57.126;24.288;2022-12-10T00:51:09;101247.72;;;-8.08;100.00
51781;BME280;37844;57.126;24.288;2022-12-10T00:53:37;101249.06;;;-8.20;100.00
51781;BME280;37844;57.126;24.288;2022-12-10T00:56:03;101245.53;;;-8.22;100.00
51781;BME280;37844;57.126;24.288;2022-12-10T00:58:30;101246.56;;;-8.20;100.00
51781;BME280;37844;57.126;24.288;2022-12-10T01:01:12;101250.59;;;-8.40;100.00
51781;BME280;37844;57.126;24.288;2022-12-10T01:03:39;101242.03;;;-8.50;100.00
51781;BME280;37844;57.126;24.288;2022-12-10T01:08:34;101244.38;;;-8.35;100.00
51781;BME280;37844;57.126;24.288;2022-12-10T01:11:00;101252.47;;;-8.37;100.00
51781;BME280;37844;57.126;24.288;2022-12-10T01:13:25;101244.53;;;-8.50;100.00
51781;BME280;37844;57.126;24.288;2022-12-10T01:15:51;101244.06;;;-8.64;100.00
51781;BME280;37844;57.126;24.288;2022-12-10T01:18:17;101237.34;;;-8.56;100.00
51781;BME280;37844;57.126;24.288;2022-12-10T01:20:42;101244.69;;;-8.58;100.00
51781;BME280;37844;57.126;24.288;2022-12-10T01:23:08;101245.72;;;-8.73;100.00
51781;BME280;37844;57.126;24.288;2022-12-10T01:25:33;101262.63;;;-8.70;100.00
51781;BME280;37844;57.126;24.288;2022-12-10T01:27:58;101254.22;;;-8.71;100.00
51781;BME280;37844;57.126;24.288;2022-12-10T01:30:24;101243.94;;;-8.74;100.00
51781;BME280;37844;57.126;24.288;2022-12-10T01:32:50;101247.03;;;-8.68;100.00
51781;BME280;37844;57.126;24.288;2022-12-10T01:35:15;101246.13;;;-8.68;100.00
51781;BME280;37844;57.126;24.288;2022-12-10T01:37:41;101250.44;;;-8.59;100.00
51781;BME280;37844;57.126;24.288;2022-12-10T01:40:07;101245.88;;;-8.54;100.00
51781;BME280;37844;57.126;24.288;2022-12-10T01:42:32;101234.38;;;-8.52;100.00
51781;BME280;37844;57.126;24.288;2022-12-10T01:45:01;101232.63;;;-8.53;100.00
51781;BME280;37844;57.126;24.288;2022-12-10T01:47:27;101233.50;;;-8.52;100.00
51781;BME280;37844;57.126;24.288;2022-12-10T01:49:53;101233.25;;;-8.47;100.00
51781;BME280;37844;57.126;24.288;2022-12-10T01:52:19;101233.38;;;-8.45;100.00
51781;BME280;37844;57.126;24.288;2022-12-10T01:54:45;101232.91;;;-8.33;100.00
51781;BME280;37844;57.126;24.288;2022-12-10T01:57:22;101234.22;;;-8.36;100.00
51781;BME280;37844;57.126;24.288;2022-12-10T02:00:03;101230.00;;;-8.46;100.00
51781;BME280;37844;57.126;24.288;2022-12-10T02:02:46;101226.44;;;-8.57;100.00
51781;BME280;37844;57.126;24.288;2022-12-10T02:08:26;101218.78;;;-8.84;100.00
51781;BME280;37844;57.126;24.288;2022-12-10T02:11:20;101220.56;;;-8.83;100.00
51781;BME280;37844;57.126;24.288;2022-12-10T02:14:00;101221.00;;;-8.79;100.00
51781;BME280;37844;57.126;24.288;2022-12-10T02:16:34;101214.25;;;-8.80;100.00
51781;BME280;37844;57.126;24.288;2022-12-10T02:22:06;101209.25;;;-8.80;100.00
51781;BME280;37844;57.126;24.288;2022-12-10T02:24:35;101220.88;;;-8.80;100.00
51781;BME280;37844;57.126;24.288;2022-12-10T02:27:12;101211.03;;;-8.70;100.00
51781;BME280;37844;57.126;24.288;2022-12-10T02:29:40;101208.09;;;-8.66;100.00
51781;BME280;37844;57.126;24.288;2022-12-10T02:32:19;101210.16;;;-8.70;100.00
51781;BME280;37844;57.126;24.288;2022-12-10T02:34:55;101207.66;;;-8.70;100.00
51781;BME280;37844;57.126;24.288;2022-12-10T02:37:27;101211.03;;;-8.70;100.00
51781;BME280;37844;57.126;24.288;2022-12-10T02:39:56;101215.13;;;-8.79;100.00
51781;BME280;37844;57.126;24.288;2022-12-10T02:42:24;101213.22;;;-8.82;100.00
51781;BME280;37844;57.126;24.288;2022-12-10T02:44:52;101205.72;;;-8.82;100.00
51781;BME280;37844;57.126;24.288;2022-12-10T02:47:19;101212.94;;;-8.85;100.00
51781;BME280;37844;57.126;24.288;2022-12-10T02:49:47;101210.97;;;-9.05;100.00
51781;BME280;37844;57.126;24.288;2022-12-10T02:52:17;101223.00;;;-9.09;100.00
51781;BME280;37844;57.126;24.288;2022-12-10T02:54:45;101225.03;;;-9.14;100.00
51781;BME280;37844;57.126;24.288;2022-12-10T03:00:10;101223.13;;;-9.25;100.00
51781;BME280;37844;57.126;24.288;2022-12-10T03:05:35;101229.00;;;-9.25;100.00
51781;BME280;37844;57.126;24.288;2022-12-10T03:10:33;101218.34;;;-9.40;100.00
51781;BME280;37844;57.126;24.288;2022-12-10T03:13:06;101217.06;;;-9.36;100.00
51781;BME280;37844;57.126;24.288;2022-12-10T03:15:34;101216.00;;;-9.38;100.00
51781;BME280;37844;57.126;24.288;2022-12-10T03:18:03;101216.88;;;-9.46;100.00
51781;BME280;37844;57.126;24.288;2022-12-10T03:20:31;101219.09;;;-9.41;100.00
51781;BME280;37844;57.126;24.288;2022-12-10T03:22:58;101218.25;;;-9.24;100.00
51781;BME280;37844;57.126;24.288;2022-12-10T03:25:26;101224.00;;;-9.25;100.00
51781;BME280;37844;57.126;24.288;2022-12-10T03:27:55;101223.53;;;-9.29;100.00
51781;BME280;37844;57.126;24.288;2022-12-10T03:30:21;101225.88;;;-9.31;100.00
51781;BME280;37844;57.126;24.288;2022-12-10T03:32:46;101225.91;;;-9.22;100.00
51781;BME280;37844;57.126;24.288;2022-12-10T03:35:14;101215.19;;;-9.30;100.00
51781;BME280;37844;57.126;24.288;2022-12-10T03:37:41;101220.47;;;-9.27;100.00
51781;BME280;37844;57.126;24.288;2022-12-10T03:40:07;101226.03;;;-9.29;100.00
51781;BME280;37844;57.126;24.288;2022-12-10T03:42:35;101229.69;;;-9.26;100.00
51781;BME280;37844;57.126;24.288;2022-12-10T03:45:02;101230.75;;;-9.24;100.00
51781;BME280;37844;57.126;24.288;2022-12-10T03:47:27;101223.78;;;-9.44;100.00
51781;BME280;37844;57.126;24.288;2022-12-10T03:49:59;101224.03;;;-9.49;100.00
51781;BME280;37844;57.126;24.288;2022-12-10T03:52:25;101224.03;;;-9.49;100.00
51781;BME280;37844;57.126;24.288;2022-12-10T03:54:50;101220.38;;;-9.53;100.00
51781;BME280;37844;57.126;24.288;2022-12-10T03:57:16;101226.94;;;-9.62;100.00
51781;BME280;37844;57.126;24.288;2022-12-10T03:59:41;101230.03;;;-9.56;100.00
51781;BME280;37844;57.126;24.288;2022-12-10T04:02:13;101220.06;;;-9.56;100.00
51781;BME280;37844;57.126;24.288;2022-12-10T04:04:38;101227.84;;;-9.53;100.00
51781;BME280;37844;57.126;24.288;2022-12-10T04:07:04;101217.47;;;-9.73;100.00
51781;BME280;37844;57.126;24.288;2022-12-10T04:09:29;101209.69;;;-9.76;100.00
51781;BME280;37844;57.126;24.288;2022-12-10T04:11:58;101217.44;;;-9.82;100.00
51781;BME280;37844;57.126;24.288;2022-12-10T04:14:24;101211.31;;;-9.77;100.00
51781;BME280;37844;57.126;24.288;2022-12-10T04:17:09;101208.19;;;-9.83;100.00
51781;BME280;37844;57.126;24.288;2022-12-10T04:19:35;101205.75;;;-9.74;100.00
51781;BME280;37844;57.126;24.288;2022-12-10T04:22:00;101201.44;;;-9.84;100.00
51781;BME280;37844;57.126;24.288;2022-12-10T04:24:45;101210.31;;;-9.70;100.00
51781;BME280;37844;57.126;24.288;2022-12-10T04:27:32;101211.09;;;-9.63;100.00
51781;BME280;37844;57.126;24.288;2022-12-10T04:29:59;101208.69;;;-9.70;100.00
51781;BME280;37844;57.126;24.288;2022-12-10T04:32:26;101202.25;;;-9.92;100.00
51781;BME280;37844;57.126;24.288;2022-12-10T04:34:52;101204.41;;;-9.79;100.00
51781;BME280;37844;57.126;24.288;2022-12-10T04:37:19;101206.31;;;-9.77;100.00
51781;BME280;37844;57.126;24.288;2022-12-10T04:39:45;101204.81;;;-9.84;100.00
51781;BME280;37844;57.126;24.288;2022-12-10T04:42:10;101197.16;;;-9.85;100.00
51781;BME280;37844;57.126;24.288;2022-12-10T04:44:36;101198.91;;;-9.93;100.00
51781;BME280;37844;57.126;24.288;2022-12-10T04:47:04;101206.69;;;-9.90;100.00
51781;BME280;37844;57.126;24.288;2022-12-10T04:49:30;101216.34;;;-9.93;100.00
51781;BME280;37844;57.126;24.288;2022-12-10T04:51:56;101212.91;;;-10.02;100.00
51781;BME280;37844;57.126;24.288;2022-12-10T04:54:21;101209.72;;;-10.01;100.00
51781;BME280;37844;57.126;24.288;2022-12-10T04:56:47;101213.56;;;-9.96;100.00
51781;BME280;37844;57.126;24.288;2022-12-10T04:59:15;101203.22;;;-10.08;100.00
51781;BME280;37844;57.126;24.288;2022-12-10T05:01:40;101208.03;;;-10.09;100.00
51781;BME280;37844;57.126;24.288;2022-12-10T05:04:08;101197.97;;;-10.02;100.00
51781;BME280;37844;57.126;24.288;2022-12-10T05:06:35;101209.38;;;-10.04;100.00
51781;BME280;37844;57.126;24.288;2022-12-10T05:09:02;101209.75;;;-10.17;100.00
51781;BME280;37844;57.126;24.288;2022-12-10T05:11:29;101210.72;;;-10.24;100.00
51781;BME280;37844;57.126;24.288;2022-12-10T05:13:55;101194.72;;;-10.26;100.00
51781;BME280;37844;57.126;24.288;2022-12-10T05:16:23;101192.25;;;-10.26;100.00
51781;BME280;37844;57.126;24.288;2022-12-10T05:18:49;101202.84;;;-10.19;100.00
51781;BME280;37844;57.126;24.288;2022-12-10T05:21:18;101204.94;;;-10.15;100.00
51781;BME280;37844;57.126;24.288;2022-12-10T05:23:46;101198.75;;;-10.19;100.00
51781;BME280;37844;57.126;24.288;2022-12-10T05:26:13;101207.66;;;-10.21;100.00
51781;BME280;37844;57.126;24.288;2022-12-10T05:28:47;101205.34;;;-10.19;100.00
51781;BME280;37844;57.126;24.288;2022-12-10T05:31:24;101202.81;;;-10.28;100.00
51781;BME280;37844;57.126;24.288;2022-12-10T05:33:51;101196.06;;;-10.29;100.00
51781;BME280;37844;57.126;24.288;2022-12-10T05:36:19;101196.78;;;-10.30;100.00
51781;BME280;37844;57.126;24.288;2022-12-10T05:38:45;101201.63;;;-10.32;100.00
51781;BME280;37844;57.126;24.288;2022-12-10T05:41:13;101200.72;;;-10.32;100.00
51781;BME280;37844;57.126;24.288;2022-12-10T05:43:40;101198.81;;;-10.35;100.00
51781;BME280;37844;57.126;24.288;2022-12-10T05:46:07;101199.47;;;-10.44;100.00
51781;BME280;37844;57.126;24.288;2022-12-10T05:48:34;101195.94;;;-10.47;100.00
51781;BME280;37844;57.126;24.288;2022-12-10T05:51:08;101194.97;;;-10.40;100.00
51781;BME280;37844;57.126;24.288;2022-12-10T05:53:35;101201.56;;;-10.40;100.00
51781;BME280;37844;57.126;24.288;2022-12-10T05:56:02;101197.72;;;-10.46;100.00
51781;BME280;37844;57.126;24.288;2022-12-10T05:58:29;101203.88;;;-10.42;100.00
51781;BME280;37844;57.126;24.288;2022-12-10T06:00:56;101197.41;;;-10.49;100.00
51781;BME280;37844;57.126;24.288;2022-12-10T06:03:22;101201.00;;;-10.54;100.00
51781;BME280;37844;57.126;24.288;2022-12-10T06:05:47;101195.50;;;-10.67;100.00
51781;BME280;37844;57.126;24.288;2022-12-10T06:08:12;101202.63;;;-10.70;100.00
51781;BME280;37844;57.126;24.288;2022-12-10T06:10:38;101195.50;;;-10.67;100.00
51781;BME280;37844;57.126;24.288;2022-12-10T06:13:04;101196.84;;;-10.62;100.00
51781;BME280;37844;57.126;24.288;2022-12-10T06:15:30;101203.66;;;-10.68;100.00
51781;BME280;37844;57.126;24.288;2022-12-10T06:17:56;101197.81;;;-10.69;100.00
51781;BME280;37844;57.126;24.288;2022-12-10T06:20:23;101202.09;;;-10.68;100.00
51781;BME280;37844;57.126;24.288;2022-12-10T06:22:48;101200.31;;;-10.69;100.00
51781;BME280;37844;57.126;24.288;2022-12-10T06:25:14;101216.03;;;-10.61;100.00
51781;BME280;37844;57.126;24.288;2022-12-10T06:27:39;101220.63;;;-10.57;100.00
51781;BME280;37844;57.126;24.288;2022-12-10T06:30:05;101207.91;;;-10.51;100.00
51781;BME280;37844;57.126;24.288;2022-12-10T06:32:31;101208.06;;;-10.50;100.00
51781;BME280;37844;57.126;24.288;2022-12-10T06:34:57;101210.97;;;-10.54;100.00
51781;BME280;37844;57.126;24.288;2022-12-10T06:37:22;101218.03;;;-10.50;100.00
51781;BME280;37844;57.126;24.288;2022-12-10T06:39:50;101215.63;;;-10.57;100.00
51781;BME280;37844;57.126;24.288;2022-12-10T06:42:16;101217.09;;;-10.59;100.00
51781;BME280;37844;57.126;24.288;2022-12-10T06:44:41;101215.06;;;-10.54;100.00
51781;BME280;37844;57.126;24.288;2022-12-10T06:47:07;101215.28;;;-10.44;100.00
51781;BME280;37844;57.126;24.288;2022-12-10T06:49:32;101210.22;;;-10.37;100.00
51781;BME280;37844;57.126;24.288;2022-12-10T06:51:57;101215.41;;;-10.27;100.00
51781;BME280;37844;57.126;24.288;2022-12-10T06:54:23;101216.28;;;-10.26;100.00
51781;BME280;37844;57.126;24.288;2022-12-10T06:56:48;101220.19;;;-10.37;100.00
51781;BME280;37844;57.126;24.288;2022-12-10T06:59:14;101223.94;;;-10.25;100.00
51781;BME280;37844;57.126;24.288;2022-12-10T07:01:39;101227.38;;;-10.15;100.00
51781;BME280;37844;57.126;24.288;2022-12-10T07:04:05;101224.03;;;-10.07;100.00
51781;BME280;37844;57.126;24.288;2022-12-10T07:06:31;101227.63;;;-9.96;100.00
51781;BME280;37844;57.126;24.288;2022-12-10T07:08:57;101233.69;;;-9.86;100.00
51781;BME280;37844;57.126;24.288;2022-12-10T07:11:23;101235.91;;;-9.80;100.00
51781;BME280;37844;57.126;24.288;2022-12-10T07:13:50;101225.47;;;-9.85;100.00
51781;BME280;37844;57.126;24.288;2022-12-10T07:16:18;101236.25;;;-9.77;100.00
51781;BME280;37844;57.126;24.288;2022-12-10T07:18:44;101232.34;;;-9.91;100.00
51781;BME280;37844;57.126;24.288;2022-12-10T07:23:43;101241.06;;;-9.78;100.00
51781;BME280;37844;57.126;24.288;2022-12-10T07:26:08;101243.47;;;-9.71;100.00
51781;BME280;37844;57.126;24.288;2022-12-10T07:28:34;101249.78;;;-9.66;100.00
51781;BME280;37844;57.126;24.288;2022-12-10T07:31:03;101254.25;;;-9.55;100.00
51781;BME280;37844;57.126;24.288;2022-12-10T07:33:29;101245.91;;;-9.55;100.00
51781;BME280;37844;57.126;24.288;2022-12-10T07:35:55;101247.81;;;-9.53;100.00
51781;BME280;37844;57.126;24.288;2022-12-10T07:38:25;101230.63;;;-9.50;100.00
51781;BME280;37844;57.126;24.288;2022-12-10T07:40:51;101239.91;;;-9.49;100.00
51781;BME280;37844;57.126;24.288;2022-12-10T07:43:17;101250.38;;;-9.35;100.00
51781;BME280;37844;57.126;24.288;2022-12-10T07:45:42;101252.44;;;-9.31;100.00
51781;BME280;37844;57.126;24.288;2022-12-10T07:48:08;101243.75;;;-9.35;100.00
51781;BME280;37844;57.126;24.288;2022-12-10T07:50:33;101249.53;;;-9.27;100.00
51781;BME280;37844;57.126;24.288;2022-12-10T07:52:59;101256.09;;;-9.36;100.00
51781;BME280;37844;57.126;24.288;2022-12-10T07:55:25;101259.53;;;-9.52;100.00
51781;BME280;37844;57.126;24.288;2022-12-10T07:57:50;101257.41;;;-9.40;100.00
51781;BME280;37844;57.126;24.288;2022-12-10T08:00:16;101254.78;;;-9.33;100.00
51781;BME280;37844;57.126;24.288;2022-12-10T08:02:42;101258.63;;;-9.28;100.00
51781;BME280;37844;57.126;24.288;2022-12-10T08:05:08;101263.44;;;-9.38;100.00
51781;BME280;37844;57.126;24.288;2022-12-10T08:07:34;101265.50;;;-9.34;100.00
51781;BME280;37844;57.126;24.288;2022-12-10T08:09:59;101264.66;;;-9.26;100.00
51781;BME280;37844;57.126;24.288;2022-12-10T08:12:25;101277.00;;;-9.19;100.00
51781;BME280;37844;57.126;24.288;2022-12-10T08:14:50;101261.00;;;-9.21;100.00
51781;BME280;37844;57.126;24.288;2022-12-10T08:17:16;101270.72;;;-9.15;100.00
51781;BME280;37844;57.126;24.288;2022-12-10T08:19:41;101261.19;;;-9.10;100.00
51781;BME280;37844;57.126;24.288;2022-12-10T08:22:07;101265.31;;;-9.02;100.00
51781;BME280;37844;57.126;24.288;2022-12-10T08:24:32;101256.19;;;-9.02;100.00
51781;BME280;37844;57.126;24.288;2022-12-10T08:26:57;101264.59;;;-8.92;100.00
51781;BME280;37844;57.126;24.288;2022-12-10T08:29:23;101265.81;;;-8.89;100.00
51781;BME280;37844;57.126;24.288;2022-12-10T08:31:48;101255.66;;;-8.90;100.00
51781;BME280;37844;57.126;24.288;2022-12-10T08:34:16;101252.56;;;-8.88;100.00
51781;BME280;37844;57.126;24.288;2022-12-10T08:36:42;101254.34;;;-8.78;100.00
51781;BME280;37844;57.126;24.288;2022-12-10T08:39:08;101264.94;;;-8.72;100.00
51781;BME280;37844;57.126;24.288;2022-12-10T08:41:35;101250.97;;;-8.79;100.00
51781;BME280;37844;57.126;24.288;2022-12-10T08:44:01;101258.94;;;-8.65;100.00
51781;BME280;37844;57.126;24.288;2022-12-10T08:46:26;101254.81;;;-8.65;100.00
51781;BME280;37844;57.126;24.288;2022-12-10T08:48:53;101254.97;;;-8.63;100.00
51781;BME280;37844;57.126;24.288;2022-12-10T08:51:20;101265.28;;;-8.60;100.00
51781;BME280;37844;57.126;24.288;2022-12-10T08:53:46;101263.63;;;-8.68;100.00
51781;BME280;37844;57.126;24.288;2022-12-10T08:56:12;101259.81;;;-8.65;100.00
51781;BME280;37844;57.126;24.288;2022-12-10T08:58:38;101255.84;;;-8.71;100.00
51781;BME280;37844;57.126;24.288;2022-12-10T09:01:08;101250.38;;;-8.76;100.00
51781;BME280;37844;57.126;24.288;2022-12-10T09:03:35;101247.59;;;-8.79;100.00
51781;BME280;37844;57.126;24.288;2022-12-10T09:06:05;101241.16;;;-8.77;100.00
51781;BME280;37844;57.126;24.288;2022-12-10T09:08:32;101244.81;;;-8.73;100.00
51781;BME280;37844;57.126;24.288;2022-12-10T09:10:58;101249.53;;;-8.68;100.00
51781;BME280;37844;57.126;24.288;2022-12-10T09:13:23;101245.44;;;-8.59;100.00
51781;BME280;37844;57.126;24.288;2022-12-10T09:15:52;101244.38;;;-8.52;100.00
51781;BME280;37844;57.126;24.288;2022-12-10T09:18:18;101253.53;;;-8.44;100.00
51781;BME280;37844;57.126;24.288;2022-12-10T09:20:44;101244.97;;;-8.55;100.00
51781;BME280;37844;57.126;24.288;2022-12-10T09:23:09;101236.16;;;-8.60;100.00
51781;BME280;37844;57.126;24.288;2022-12-10T09:25:35;101242.31;;;-8.65;100.00
51781;BME280;37844;57.126;24.288;2022-12-10T09:28:01;101246.75;;;-8.62;100.00
51781;BME280;37844;57.126;24.288;2022-12-10T09:30:26;101244.38;;;-8.69;100.00
51781;BME280;37844;57.126;24.288;2022-12-10T09:32:52;101244.69;;;-8.75;100.00
51781;BME280;37844;57.126;24.288;2022-12-10T09:35:21;101240.97;;;-8.79;100.00
51781;BME280;37844;57.126;24.288;2022-12-10T09:37:47;101253.34;;;-8.63;100.00
51781;BME280;37844;57.126;24.288;2022-12-10T09:40:48;101243.22;;;-8.56;100.00
51781;BME280;37844;57.126;24.288;2022-12-10T09:49:05;101238.25;;;-8.47;100.00
51781;BME280;37844;57.126;24.288;2022-12-10T09:51:35;101232.59;;;-8.27;100.00
51781;BME280;37844;57.126;24.288;2022-12-10T09:56:45;101243.63;;;-8.34;100.00
51781;BME280;37844;57.126;24.288;2022-12-10T09:59:23;101240.38;;;-8.24;100.00
51781;BME280;37844;57.126;24.288;2022-12-10T10:01:59;101237.16;;;-8.23;100.00
51781;BME280;37844;57.126;24.288;2022-12-10T10:04:26;101246.72;;;-8.27;100.00
51781;BME280;37844;57.126;24.288;2022-12-10T10:06:52;101242.94;;;-8.41;100.00
51781;BME280;37844;57.126;24.288;2022-12-10T10:09:18;101236.41;;;-8.31;100.00
51781;BME280;37844;57.126;24.288;2022-12-10T10:11:45;101243.34;;;-8.28;100.00
51781;BME280;37844;57.126;24.288;2022-12-10T10:14:24;101238.75;;;-8.15;100.00
51781;BME280;37844;57.126;24.288;2022-12-10T10:17:01;101230.50;;;-8.05;100.00
51781;BME280;37844;57.126;24.288;2022-12-10T10:19:31;101231.38;;;-8.04;100.00
51781;BME280;37844;57.126;24.288;2022-12-10T10:21:58;101227.13;;;-8.05;100.00
51781;BME280;37844;57.126;24.288;2022-12-10T10:24:44;101229.34;;;-8.08;100.00
51781;BME280;37844;57.126;24.288;2022-12-10T10:27:22;101222.84;;;-7.98;100.00
51781;BME280;37844;57.126;24.288;2022-12-10T10:29:51;101229.19;;;-8.10;100.00
51781;BME280;37844;57.126;24.288;2022-12-10T10:32:22;101224.34;;;-8.08;100.00
51781;BME280;37844;57.126;24.288;2022-12-10T10:34:53;101233.88;;;-8.04;100.00
51781;BME280;37844;57.126;24.288;2022-12-10T10:40:00;101234.06;;;-8.20;100.00
51781;BME280;37844;57.126;24.288;2022-12-10T10:42:40;101237.44;;;-8.28;100.00
51781;BME280;37844;57.126;24.288;2022-12-10T10:45:33;101244.34;;;-8.17;100.00
51781;BME280;37844;57.126;24.288;2022-12-10T10:48:20;101234.50;;;-8.24;100.00
51781;BME280;37844;57.126;24.288;2022-12-10T10:53:26;101232.28;;;-8.21;100.00
51781;BME280;37844;57.126;24.288;2022-12-10T10:56:17;101231.41;;;-8.22;100.00
51781;BME280;37844;57.126;24.288;2022-12-10T11:01:20;101244.69;;;-8.40;100.00
51781;BME280;37844;57.126;24.288;2022-12-10T11:03:53;101242.06;;;-8.42;100.00
51781;BME280;37844;57.126;24.288;2022-12-10T11:06:20;101232.00;;;-8.33;100.00
51781;BME280;37844;57.126;24.288;2022-12-10T11:08:47;101243.75;;;-8.23;100.00
51781;BME280;37844;57.126;24.288;2022-12-10T11:11:22;101247.28;;;-8.21;100.00
51781;BME280;37844;57.126;24.288;2022-12-10T11:13:49;101237.13;;;-8.14;100.00
51781;BME280;37844;57.126;24.288;2022-12-10T11:18:43;101236.53;;;-8.12;100.00
51781;BME280;37844;57.126;24.288;2022-12-10T11:21:19;101236.84;;;-8.17;100.00
51781;BME280;37844;57.126;24.288;2022-12-10T11:23:48;101234.50;;;-8.16;100.00
51781;BME280;37844;57.126;24.288;2022-12-10T11:26:23;101242.88;;;-8.06;100.00
51781;BME280;37844;57.126;24.288;2022-12-10T11:32:35;101238.31;;;-8.11;100.00
51781;BME280;37844;57.126;24.288;2022-12-10T11:56:34;101233.00;;;-7.96;100.00
51781;BME280;37844;57.126;24.288;2022-12-10T12:01:53;101227.84;;;-7.98;100.00
51781;BME280;37844;57.126;24.288;2022-12-10T12:15:13;101241.06;;;-7.90;100.00
51781;BME280;37844;57.126;24.288;2022-12-10T12:17:43;101238.88;;;-7.87;100.00
51781;BME280;37844;57.126;24.288;2022-12-10T12:20:30;101247.41;;;-8.02;100.00
51781;BME280;37844;57.126;24.288;2022-12-10T12:23:23;101250.09;;;-8.18;100.00
51781;BME280;37844;57.126;24.288;2022-12-10T12:25:56;101254.53;;;-8.16;100.00
51781;BME280;37844;57.126;24.288;2022-12-10T12:28:32;101254.94;;;-8.20;100.00
51781;BME280;37844;57.126;24.288;2022-12-10T12:31:09;101251.72;;;-8.10;100.00
51781;BME280;37844;57.126;24.288;2022-12-10T12:33:59;101252.41;;;-8.02;100.00
51781;BME280;37844;57.126;24.288;2022-12-10T12:36:30;101246.53;;;-8.03;100.00
51781;BME280;37844;57.126;24.288;2022-12-10T12:39:16;101229.78;;;-8.04;100.00
51781;BME280;37844;57.126;24.288;2022-12-10T12:42:16;101252.84;;;-7.89;100.00
51781;BME280;37844;57.126;24.288;2022-12-10T12:45:04;101255.97;;;-8.18;100.00
51781;BME280;37844;57.126;24.288;2022-12-10T12:47:53;101260.69;;;-8.21;100.00
51781;BME280;37844;57.126;24.288;2022-12-10T12:53:23;101259.06;;;-8.20;100.00
51781;BME280;37844;57.126;24.288;2022-12-10T13:01:55;101256.56;;;-8.03;100.00
51781;BME280;37844;57.126;24.288;2022-12-10T13:04:22;101254.50;;;-7.98;100.00
51781;BME280;37844;57.126;24.288;2022-12-10T13:09:44;101255.09;;;-7.92;100.00
51781;BME280;37844;57.126;24.288;2022-12-10T13:12:32;101254.06;;;-8.03;100.00
51781;BME280;37844;57.126;24.288;2022-12-10T13:15:20;101259.78;;;-7.95;100.00
51781;BME280;37844;57.126;24.288;2022-12-10T13:20:34;101260.13;;;-8.18;100.00
51781;BME280;37844;57.126;24.288;2022-12-10T13:23:08;101246.84;;;-8.08;100.00
51781;BME280;37844;57.126;24.288;2022-12-10T13:28:40;101242.88;;;-8.06;100.00
51781;BME280;37844;57.126;24.288;2022-12-10T13:36:11;101238.00;;;-7.96;100.00
51781;BME280;37844;57.126;24.288;2022-12-10T13:41:33;101240.09;;;-8.36;100.00
51781;BME280;37844;57.126;24.288;2022-12-10T13:44:47;101253.91;;;-8.22;100.00
51781;BME280;37844;57.126;24.288;2022-12-10T13:49:58;101248.34;;;-8.37;100.00
51781;BME280;37844;57.126;24.288;2022-12-10T14:01:02;101257.00;;;-8.24;100.00
51781;BME280;37844;57.126;24.288;2022-12-10T14:04:00;101255.09;;;-8.27;100.00
51781;BME280;37844;57.126;24.288;2022-12-10T14:06:34;101256.56;;;-8.20;100.00
51781;BME280;37844;57.126;24.288;2022-12-10T14:09:29;101259.81;;;-8.13;100.00
51781;BME280;37844;57.126;24.288;2022-12-10T14:11:58;101263.91;;;-7.96;100.00
51781;BME280;37844;57.126;24.288;2022-12-10T14:14:42;101259.50;;;-7.98;100.00
51781;BME280;37844;57.126;24.288;2022-12-10T14:17:14;101266.69;;;-7.93;100.00
51781;BME280;37844;57.126;24.288;2022-12-10T14:19:42;101258.75;;;-7.89;100.00
51781;BME280;37844;57.126;24.288;2022-12-10T14:22:14;101245.63;;;-7.77;100.00
51781;BME280;37844;57.126;24.288;2022-12-10T14:24:41;101252.69;;;-7.82;100.00
51781;BME280;37844;57.126;24.288;2022-12-10T14:27:25;101251.22;;;-7.80;100.00
51781;BME280;37844;57.126;24.288;2022-12-10T14:30:00;101243.41;;;-7.74;100.00
51781;BME280;37844;57.126;24.288;2022-12-10T14:32:32;101243.50;;;-7.64;100.00
51781;BME280;37844;57.126;24.288;2022-12-10T14:34:59;101247.50;;;-7.66;100.00